sensor_id;sensor_type;location;lat;lon;timestamp;P1;durP1;ratioP1;P2;durP2;ratioP2
1847;SDS011;924;52.448;13.356;2023-04-06T00:01:36;7.63;;;6.33;;
1847;SDS011;924;52.448;13.356;2023-04-06T00:04:01;6.90;;;6.27;;
1847;SDS011;924;52.448;13.356;2023-04-06T00:06:26;9.33;;;6.47;;
1847;SDS011;924;52.448;13.356;2023-04-06T00:08:52;6.40;;;5.90;;
1847;SDS011;924;52.448;13.356;2023-04-06T00:11:17;7.00;;;6.33;;
1847;SDS011;924;52.448;13.356;2023-04-06T00:13:43;7.60;;;5.27;;
1847;SDS011;924;52.448;13.356;2023-04-06T00:16:08;7.23;;;5.47;;
1847;SDS011;924;52.448;13.356;2023-04-06T00:18:33;6.93;;;5.40;;
1847;SDS011;924;52.448;13.356;2023-04-06T00:20:59;6.57;;;5.90;;
1847;SDS011;924;52.448;13.356;2023-04-06T00:23:24;6.13;;;5.53;;
1847;SDS011;924;52.448;13.356;2023-04-06T00:25:49;6.40;;;5.80;;
1847;SDS011;924;52.448;13.356;2023-04-06T00:28:15;6.37;;;5.80;;
1847;SDS011;924;52.448;13.356;2023-04-06T00:30:40;6.17;;;5.47;;
1847;SDS011;924;52.448;13.356;2023-04-06T00:33:06;9.33;;;5.93;;
1847;SDS011;924;52.448;13.356;2023-04-06T00:35:31;6.27;;;5.33;;
1847;SDS011;924;52.448;13.356;2023-04-06T00:37:56;6.10;;;5.53;;
1847;SDS011;924;52.448;13.356;2023-04-06T00:40:22;10.23;;;5.73;;
1847;SDS011;924;52.448;13.356;2023-04-06T00:42:47;6.53;;;5.60;;
1847;SDS011;924;52.448;13.356;2023-04-06T00:45:12;6.87;;;5.87;;
1847;SDS011;924;52.448;13.356;2023-04-06T00:47:37;5.83;;;5.33;;
1847;SDS011;924;52.448;13.356;2023-04-06T00:50:03;6.87;;;6.33;;
1847;SDS011;924;52.448;13.356;2023-04-06T00:52:28;6.60;;;5.90;;
1847;SDS011;924;52.448;13.356;2023-04-06T00:54:53;6.37;;;5.67;;
1847;SDS011;924;52.448;13.356;2023-04-06T00:57:19;6.90;;;6.27;;
1847;SDS011;924;52.448;13.356;2023-04-06T00:59:44;6.30;;;5.70;;
1847;SDS011;924;52.448;13.356;2023-04-06T01:02:10;6.47;;;5.90;;
1847;SDS011;924;52.448;13.356;2023-04-06T01:04:35;6.77;;;5.50;;
1847;SDS011;924;52.448;13.356;2023-04-06T01:07:01;6.23;;;5.63;;
1847;SDS011;924;52.448;13.356;2023-04-06T01:09:29;6.10;;;5.50;;
1847;SDS011;924;52.448;13.356;2023-04-06T01:11:55;6.70;;;6.10;;
1847;SDS011;924;52.448;13.356;2023-04-06T01:14:21;6.87;;;6.23;;
1847;SDS011;924;52.448;13.356;2023-04-06T01:16:46;7.67;;;6.17;;
1847;SDS011;924;52.448;13.356;2023-04-06T01:19:11;6.10;;;5.50;;
1847;SDS011;924;52.448;13.356;2023-04-06T01:21:37;5.87;;;5.20;;
1847;SDS011;924;52.448;13.356;2023-04-06T01:24:03;6.77;;;6.13;;
1847;SDS011;924;52.448;13.356;2023-04-06T01:26:28;9.77;;;5.93;;
1847;SDS011;924;52.448;13.356;2023-04-06T01:28:54;8.47;;;7.10;;
1847;SDS011;924;52.448;13.356;2023-04-06T01:31:20;7.27;;;6.27;;
1847;SDS011;924;52.448;13.356;2023-04-06T01:33:45;6.70;;;6.07;;
1847;SDS011;924;52.448;13.356;2023-04-06T01:36:10;7.07;;;6.37;;
1847;SDS011;924;52.448;13.356;2023-04-06T01:38:36;5.80;;;5.30;;
1847;SDS011;924;52.448;13.356;2023-04-06T01:41:01;7.13;;;6.40;;
1847;SDS011;924;52.448;13.356;2023-04-06T01:43:26;6.97;;;5.80;;
1847;SDS011;924;52.448;13.356;2023-04-06T01:45:51;8.43;;;6.37;;
1847;SDS011;924;52.448;13.356;2023-04-06T01:48:17;7.10;;;6.40;;
1847;SDS011;924;52.448;13.356;2023-04-06T01:50:42;6.90;;;5.93;;
1847;SDS011;924;52.448;13.356;2023-04-06T01:53:07;7.73;;;6.43;;
1847;SDS011;924;52.448;13.356;2023-04-06T01:55:33;7.67;;;5.87;;
1847;SDS011;924;52.448;13.356;2023-04-06T01:57:58;6.27;;;5.67;;
1847;SDS011;924;52.448;13.356;2023-04-06T02:00:23;7.13;;;6.43;;
1847;SDS011;924;52.448;13.356;2023-04-06T02:02:48;6.20;;;5.60;;
1847;SDS011;924;52.448;13.356;2023-04-06T02:05:14;8.20;;;6.00;;
1847;SDS011;924;52.448;13.356;2023-04-06T02:07:39;10.00;;;7.07;;
1847;SDS011;924;52.448;13.356;2023-04-06T02:10:10;5.80;;;5.20;;
1847;SDS011;924;52.448;13.356;2023-04-06T02:12:35;6.40;;;5.80;;
1847;SDS011;924;52.448;13.356;2023-04-06T02:15:01;6.87;;;5.90;;
1847;SDS011;924;52.448;13.356;2023-04-06T02:17:26;9.60;;;6.33;;
1847;SDS011;924;52.448;13.356;2023-04-06T02:19:51;6.03;;;5.43;;
1847;SDS011;924;52.448;13.356;2023-04-06T02:22:16;8.10;;;7.10;;
1847;SDS011;924;52.448;13.356;2023-04-06T02:24:42;7.07;;;6.47;;
1847;SDS011;924;52.448;13.356;2023-04-06T02:27:07;7.33;;;6.10;;
1847;SDS011;924;52.448;13.356;2023-04-06T02:29:32;6.60;;;5.97;;
1847;SDS011;924;52.448;13.356;2023-04-06T02:31:57;6.70;;;6.03;;
1847;SDS011;924;52.448;13.356;2023-04-06T02:34:23;12.07;;;5.50;;
1847;SDS011;924;52.448;13.356;2023-04-06T02:36:48;6.50;;;5.50;;
1847;SDS011;924;52.448;13.356;2023-04-06T02:39:13;7.07;;;5.60;;
1847;SDS011;924;52.448;13.356;2023-04-06T02:41:38;8.77;;;6.17;;
1847;SDS011;924;52.448;13.356;2023-04-06T02:44:05;6.73;;;5.97;;
1847;SDS011;924;52.448;13.356;2023-04-06T02:46:31;7.03;;;6.20;;
1847;SDS011;924;52.448;13.356;2023-04-06T02:48:56;6.90;;;6.30;;
1847;SDS011;924;52.448;13.356;2023-04-06T02:51:21;6.33;;;5.70;;
1847;SDS011;924;52.448;13.356;2023-04-06T02:53:46;6.57;;;6.07;;
1847;SDS011;924;52.448;13.356;2023-04-06T02:56:12;6.73;;;6.07;;
1847;SDS011;924;52.448;13.356;2023-04-06T02:58:37;6.63;;;6.03;;
1847;SDS011;924;52.448;13.356;2023-04-06T03:01:02;7.07;;;6.37;;
1847;SDS011;924;52.448;13.356;2023-04-06T03:03:28;6.67;;;6.00;;
1847;SDS011;924;52.448;13.356;2023-04-06T03:05:53;7.87;;;6.70;;
1847;SDS011;924;52.448;13.356;2023-04-06T03:08:19;7.33;;;6.63;;
1847;SDS011;924;52.448;13.356;2023-04-06T03:10:45;8.13;;;6.80;;
1847;SDS011;924;52.448;13.356;2023-04-06T03:13:10;7.60;;;6.60;;
1847;SDS011;924;52.448;13.356;2023-04-06T03:15:35;6.97;;;6.27;;
1847;SDS011;924;52.448;13.356;2023-04-06T03:18:00;7.03;;;6.33;;
1847;SDS011;924;52.448;13.356;2023-04-06T03:20:26;6.87;;;6.27;;
1847;SDS011;924;52.448;13.356;2023-04-06T03:22:51;8.10;;;7.33;;
1847;SDS011;924;52.448;13.356;2023-04-06T03:25:16;7.50;;;6.80;;
1847;SDS011;924;52.448;13.356;2023-04-06T03:27:42;8.67;;;6.50;;
1847;SDS011;924;52.448;13.356;2023-04-06T03:30:07;8.03;;;7.00;;
1847;SDS011;924;52.448;13.356;2023-04-06T03:32:32;7.80;;;6.13;;
1847;SDS011;924;52.448;13.356;2023-04-06T03:34:58;6.70;;;6.03;;
1847;SDS011;924;52.448;13.356;2023-04-06T03:37:23;7.47;;;6.43;;
1847;SDS011;924;52.448;13.356;2023-04-06T03:39:48;7.93;;;6.13;;
1847;SDS011;924;52.448;13.356;2023-04-06T03:42:13;7.00;;;6.30;;
1847;SDS011;924;52.448;13.356;2023-04-06T03:44:39;9.37;;;6.80;;
1847;SDS011;924;52.448;13.356;2023-04-06T03:47:04;6.97;;;6.20;;
1847;SDS011;924;52.448;13.356;2023-04-06T03:49:29;9.90;;;7.20;;
1847;SDS011;924;52.448;13.356;2023-04-06T03:51:55;8.90;;;6.70;;
1847;SDS011;924;52.448;13.356;2023-04-06T03:54:21;10.07;;;6.60;;
1847;SDS011;924;52.448;13.356;2023-04-06T03:56:46;7.40;;;6.70;;
1847;SDS011;924;52.448;13.356;2023-04-06T03:59:11;10.60;;;8.13;;
1847;SDS011;924;52.448;13.356;2023-04-06T04:01:37;8.40;;;7.60;;
1847;SDS011;924;52.448;13.356;2023-04-06T04:04:02;8.93;;;7.37;;
1847;SDS011;924;52.448;13.356;2023-04-06T04:06:27;8.30;;;7.57;;
1847;SDS011;924;52.448;13.356;2023-04-06T04:08:52;8.57;;;7.73;;
1847;SDS011;924;52.448;13.356;2023-04-06T04:11:18;7.80;;;7.10;;
1847;SDS011;924;52.448;13.356;2023-04-06T04:13:43;9.03;;;7.80;;
1847;SDS011;924;52.448;13.356;2023-04-06T04:16:08;10.40;;;8.50;;
1847;SDS011;924;52.448;13.356;2023-04-06T04:18:34;9.87;;;8.90;;
1847;SDS011;924;52.448;13.356;2023-04-06T04:20:59;8.20;;;7.40;;
1847;SDS011;924;52.448;13.356;2023-04-06T04:23:25;10.90;;;8.10;;
1847;SDS011;924;52.448;13.356;2023-04-06T04:25:50;11.57;;;9.50;;
1847;SDS011;924;52.448;13.356;2023-04-06T04:28:16;10.20;;;9.40;;
1847;SDS011;924;52.448;13.356;2023-04-06T04:30:41;9.47;;;8.60;;
1847;SDS011;924;52.448;13.356;2023-04-06T04:33:06;11.57;;;10.57;;
1847;SDS011;924;52.448;13.356;2023-04-06T04:35:32;12.47;;;11.27;;
1847;SDS011;924;52.448;13.356;2023-04-06T04:37:57;11.77;;;10.70;;
1847;SDS011;924;52.448;13.356;2023-04-06T04:40:22;11.97;;;10.73;;
1847;SDS011;924;52.448;13.356;2023-04-06T04:42:48;11.80;;;10.70;;
1847;SDS011;924;52.448;13.356;2023-04-06T04:45:13;10.90;;;9.80;;
1847;SDS011;924;52.448;13.356;2023-04-06T04:47:39;11.80;;;10.60;;
1847;SDS011;924;52.448;13.356;2023-04-06T04:50:04;14.30;;;12.83;;
1847;SDS011;924;52.448;13.356;2023-04-06T04:52:30;12.30;;;11.20;;
1847;SDS011;924;52.448;13.356;2023-04-06T04:54:55;14.03;;;12.50;;
1847;SDS011;924;52.448;13.356;2023-04-06T04:57:20;12.63;;;10.50;;
1847;SDS011;924;52.448;13.356;2023-04-06T04:59:45;14.90;;;12.30;;
1847;SDS011;924;52.448;13.356;2023-04-06T05:02:11;13.03;;;11.83;;
1847;SDS011;924;52.448;13.356;2023-04-06T05:04:36;12.90;;;11.70;;
1847;SDS011;924;52.448;13.356;2023-04-06T05:07:02;13.13;;;11.70;;
1847;SDS011;924;52.448;13.356;2023-04-06T05:09:29;15.43;;;12.60;;
1847;SDS011;924;52.448;13.356;2023-04-06T05:11:55;14.73;;;12.10;;
1847;SDS011;924;52.448;13.356;2023-04-06T05:14:20;16.87;;;13.07;;
1847;SDS011;924;52.448;13.356;2023-04-06T05:16:45;14.97;;;13.57;;
1847;SDS011;924;52.448;13.356;2023-04-06T05:19:10;13.40;;;11.93;;
1847;SDS011;924;52.448;13.356;2023-04-06T05:21:36;14.07;;;12.57;;
1847;SDS011;924;52.448;13.356;2023-04-06T05:24:01;13.07;;;11.87;;
1847;SDS011;924;52.448;13.356;2023-04-06T05:26:27;13.17;;;11.83;;
1847;SDS011;924;52.448;13.356;2023-04-06T05:28:52;13.13;;;11.90;;
1847;SDS011;924;52.448;13.356;2023-04-06T05:31:18;13.70;;;12.30;;
1847;SDS011;924;52.448;13.356;2023-04-06T05:33:43;14.73;;;10.90;;
1847;SDS011;924;52.448;13.356;2023-04-06T05:36:08;14.63;;;11.70;;
1847;SDS011;924;52.448;13.356;2023-04-06T05:38:34;12.80;;;11.60;;
1847;SDS011;924;52.448;13.356;2023-04-06T05:40:59;20.80;;;12.57;;
1847;SDS011;924;52.448;13.356;2023-04-06T05:43:25;13.03;;;11.63;;
1847;SDS011;924;52.448;13.356;2023-04-06T05:45:50;12.83;;;11.53;;
1847;SDS011;924;52.448;13.356;2023-04-06T05:48:15;11.33;;;10.33;;
1847;SDS011;924;52.448;13.356;2023-04-06T05:50:40;12.20;;;11.10;;
1847;SDS011;924;52.448;13.356;2023-04-06T05:53:05;11.67;;;10.57;;
1847;SDS011;924;52.448;13.356;2023-04-06T05:55:31;13.63;;;10.90;;
1847;SDS011;924;52.448;13.356;2023-04-06T05:57:56;12.13;;;11.03;;
1847;SDS011;924;52.448;13.356;2023-04-06T06:00:21;10.57;;;9.50;;
1847;SDS011;924;52.448;13.356;2023-04-06T06:02:46;15.13;;;10.20;;
1847;SDS011;924;52.448;13.356;2023-04-06T06:05:13;15.70;;;11.50;;
1847;SDS011;924;52.448;13.356;2023-04-06T06:07:38;12.20;;;10.30;;
1847;SDS011;924;52.448;13.356;2023-04-06T06:10:04;11.27;;;10.17;;
1847;SDS011;924;52.448;13.356;2023-04-06T06:12:29;12.07;;;10.87;;
1847;SDS011;924;52.448;13.356;2023-04-06T06:14:55;9.73;;;8.83;;
1847;SDS011;924;52.448;13.356;2023-04-06T06:17:20;11.37;;;9.83;;
1847;SDS011;924;52.448;13.356;2023-04-06T06:19:45;10.40;;;9.33;;
1847;SDS011;924;52.448;13.356;2023-04-06T06:22:10;10.80;;;9.60;;
1847;SDS011;924;52.448;13.356;2023-04-06T06:24:36;11.93;;;9.50;;
1847;SDS011;924;52.448;13.356;2023-04-06T06:27:01;10.37;;;9.33;;
1847;SDS011;924;52.448;13.356;2023-04-06T06:29:26;10.30;;;9.17;;
1847;SDS011;924;52.448;13.356;2023-04-06T06:31:52;10.20;;;9.10;;
1847;SDS011;924;52.448;13.356;2023-04-06T06:34:17;9.97;;;8.93;;
1847;SDS011;924;52.448;13.356;2023-04-06T06:36:42;13.87;;;12.37;;
1847;SDS011;924;52.448;13.356;2023-04-06T06:39:07;10.77;;;8.50;;
1847;SDS011;924;52.448;13.356;2023-04-06T06:41:33;11.23;;;10.23;;
1847;SDS011;924;52.448;13.356;2023-04-06T06:43:58;9.83;;;8.37;;
1847;SDS011;924;52.448;13.356;2023-04-06T06:46:23;10.63;;;9.03;;
1847;SDS011;924;52.448;13.356;2023-04-06T06:48:49;11.73;;;10.20;;
1847;SDS011;924;52.448;13.356;2023-04-06T06:51:14;10.87;;;9.87;;
1847;SDS011;924;52.448;13.356;2023-04-06T06:53:39;10.43;;;9.27;;
1847;SDS011;924;52.448;13.356;2023-04-06T06:56:05;10.80;;;9.20;;
1847;SDS011;924;52.448;13.356;2023-04-06T06:58:30;9.67;;;8.63;;
1847;SDS011;924;52.448;13.356;2023-04-06T07:00:58;11.10;;;8.60;;
1847;SDS011;924;52.448;13.356;2023-04-06T07:03:24;8.70;;;7.63;;
1847;SDS011;924;52.448;13.356;2023-04-06T07:05:50;12.87;;;8.83;;
1847;SDS011;924;52.448;13.356;2023-04-06T07:08:18;9.70;;;8.70;;
1847;SDS011;924;52.448;13.356;2023-04-06T07:10:43;8.97;;;8.03;;
1847;SDS011;924;52.448;13.356;2023-04-06T07:13:09;7.73;;;7.03;;
1847;SDS011;924;52.448;13.356;2023-04-06T07:15:34;9.33;;;7.77;;
1847;SDS011;924;52.448;13.356;2023-04-06T07:17:59;9.03;;;7.87;;
1847;SDS011;924;52.448;13.356;2023-04-06T07:20:25;8.90;;;8.00;;
1847;SDS011;924;52.448;13.356;2023-04-06T07:22:50;9.13;;;7.50;;
1847;SDS011;924;52.448;13.356;2023-04-06T07:25:15;10.83;;;7.60;;
1847;SDS011;924;52.448;13.356;2023-04-06T07:27:41;9.60;;;7.20;;
1847;SDS011;924;52.448;13.356;2023-04-06T07:30:06;7.10;;;6.40;;
1847;SDS011;924;52.448;13.356;2023-04-06T07:32:32;9.90;;;8.87;;
1847;SDS011;924;52.448;13.356;2023-04-06T07:35:00;7.60;;;6.80;;
1847;SDS011;924;52.448;13.356;2023-04-06T07:37:26;8.00;;;7.23;;
1847;SDS011;924;52.448;13.356;2023-04-06T07:39:51;11.97;;;10.87;;
1847;SDS011;924;52.448;13.356;2023-04-06T07:42:16;8.40;;;6.30;;
1847;SDS011;924;52.448;13.356;2023-04-06T07:44:41;7.57;;;6.87;;
1847;SDS011;924;52.448;13.356;2023-04-06T07:47:07;8.93;;;7.30;;
1847;SDS011;924;52.448;13.356;2023-04-06T07:49:32;10.20;;;7.53;;
1847;SDS011;924;52.448;13.356;2023-04-06T07:51:57;6.30;;;5.70;;
1847;SDS011;924;52.448;13.356;2023-04-06T07:54:23;9.53;;;6.83;;
1847;SDS011;924;52.448;13.356;2023-04-06T07:56:48;6.43;;;5.93;;
1847;SDS011;924;52.448;13.356;2023-04-06T07:59:13;10.90;;;6.23;;
1847;SDS011;924;52.448;13.356;2023-04-06T08:01:38;13.07;;;10.30;;
1847;SDS011;924;52.448;13.356;2023-04-06T08:04:04;10.47;;;8.27;;
1847;SDS011;924;52.448;13.356;2023-04-06T08:06:29;16.70;;;10.33;;
1847;SDS011;924;52.448;13.356;2023-04-06T08:08:55;7.93;;;6.20;;
1847;SDS011;924;52.448;13.356;2023-04-06T08:11:20;7.37;;;6.60;;
1847;SDS011;924;52.448;13.356;2023-04-06T08:13:46;7.40;;;6.00;;
1847;SDS011;924;52.448;13.356;2023-04-06T08:16:11;5.83;;;5.17;;
1847;SDS011;924;52.448;13.356;2023-04-06T08:18:36;6.20;;;5.57;;
1847;SDS011;924;52.448;13.356;2023-04-06T08:21:02;5.87;;;5.37;;
1847;SDS011;924;52.448;13.356;2023-04-06T08:23:27;5.93;;;4.80;;
1847;SDS011;924;52.448;13.356;2023-04-06T08:25:52;5.40;;;4.90;;
1847;SDS011;924;52.448;13.356;2023-04-06T08:28:19;5.13;;;4.40;;
1847;SDS011;924;52.448;13.356;2023-04-06T08:30:44;5.93;;;4.33;;
1847;SDS011;924;52.448;13.356;2023-04-06T08:33:10;5.47;;;4.97;;
1847;SDS011;924;52.448;13.356;2023-04-06T08:35:35;8.73;;;5.03;;
1847;SDS011;924;52.448;13.356;2023-04-06T08:38:01;4.60;;;4.13;;
1847;SDS011;924;52.448;13.356;2023-04-06T08:40:26;6.33;;;4.40;;
1847;SDS011;924;52.448;13.356;2023-04-06T08:42:54;6.07;;;5.47;;
1847;SDS011;924;52.448;13.356;2023-04-06T08:45:19;5.27;;;4.80;;
1847;SDS011;924;52.448;13.356;2023-04-06T08:47:46;4.17;;;3.87;;
1847;SDS011;924;52.448;13.356;2023-04-06T08:50:13;4.50;;;3.87;;
1847;SDS011;924;52.448;13.356;2023-04-06T08:52:39;4.00;;;3.40;;
1847;SDS011;924;52.448;13.356;2023-04-06T08:55:05;3.40;;;3.00;;
1847;SDS011;924;52.448;13.356;2023-04-06T08:57:32;5.43;;;3.73;;
1847;SDS011;924;52.448;13.356;2023-04-06T08:59:57;4.30;;;3.10;;
1847;SDS011;924;52.448;13.356;2023-04-06T09:02:23;3.93;;;3.50;;
1847;SDS011;924;52.448;13.356;2023-04-06T09:04:50;4.37;;;3.37;;
1847;SDS011;924;52.448;13.356;2023-04-06T09:07:17;4.17;;;3.20;;
1847;SDS011;924;52.448;13.356;2023-04-06T09:09:42;4.30;;;3.17;;
1847;SDS011;924;52.448;13.356;2023-04-06T09:12:28;3.37;;;2.60;;
1847;SDS011;924;52.448;13.356;2023-04-06T09:14:54;3.43;;;2.60;;
1847;SDS011;924;52.448;13.356;2023-04-06T09:17:27;4.10;;;3.70;;
1847;SDS011;924;52.448;13.356;2023-04-06T09:19:53;4.47;;;3.30;;
1847;SDS011;924;52.448;13.356;2023-04-06T09:22:19;4.93;;;2.47;;
1847;SDS011;924;52.448;13.356;2023-04-06T09:24:46;3.57;;;3.27;;
1847;SDS011;924;52.448;13.356;2023-04-06T09:27:12;4.03;;;3.63;;
1847;SDS011;924;52.448;13.356;2023-04-06T09:29:37;5.30;;;3.30;;
1847;SDS011;924;52.448;13.356;2023-04-06T09:32:06;3.40;;;3.10;;
1847;SDS011;924;52.448;13.356;2023-04-06T09:34:32;5.33;;;3.47;;
1847;SDS011;924;52.448;13.356;2023-04-06T09:36:57;3.47;;;2.63;;
1847;SDS011;924;52.448;13.356;2023-04-06T09:39:23;2.63;;;2.43;;
1847;SDS011;924;52.448;13.356;2023-04-06T09:41:52;3.97;;;3.13;;
1847;SDS011;924;52.448;13.356;2023-04-06T09:44:17;3.23;;;2.40;;
1847;SDS011;924;52.448;13.356;2023-04-06T09:46:44;2.63;;;2.33;;
1847;SDS011;924;52.448;13.356;2023-04-06T09:49:11;3.50;;;2.93;;
1847;SDS011;924;52.448;13.356;2023-04-06T09:51:40;4.23;;;2.60;;
1847;SDS011;924;52.448;13.356;2023-04-06T09:54:06;3.07;;;2.77;;
1847;SDS011;924;52.448;13.356;2023-04-06T09:56:42;3.00;;;2.70;;
1847;SDS011;924;52.448;13.356;2023-04-06T09:59:12;3.87;;;3.33;;
1847;SDS011;924;52.448;13.356;2023-04-06T10:01:38;3.97;;;3.03;;
1847;SDS011;924;52.448;13.356;2023-04-06T10:04:17;2.87;;;2.63;;
1847;SDS011;924;52.448;13.356;2023-04-06T10:06:46;3.77;;;2.87;;
1847;SDS011;924;52.448;13.356;2023-04-06T10:09:17;3.63;;;2.87;;
1847;SDS011;924;52.448;13.356;2023-04-06T10:11:42;3.30;;;2.90;;
1847;SDS011;924;52.448;13.356;2023-04-06T10:14:07;3.23;;;2.67;;
1847;SDS011;924;52.448;13.356;2023-04-06T10:16:32;4.80;;;2.83;;
1847;SDS011;924;52.448;13.356;2023-04-06T10:19:00;3.70;;;2.97;;
1847;SDS011;924;52.448;13.356;2023-04-06T10:21:27;2.70;;;2.50;;
1847;SDS011;924;52.448;13.356;2023-04-06T10:23:59;3.33;;;2.77;;
1847;SDS011;924;52.448;13.356;2023-04-06T10:26:25;3.10;;;2.80;;
1847;SDS011;924;52.448;13.356;2023-04-06T10:28:51;2.90;;;2.70;;
1847;SDS011;924;52.448;13.356;2023-04-06T10:31:27;2.90;;;2.70;;
1847;SDS011;924;52.448;13.356;2023-04-06T10:33:56;3.17;;;2.90;;
1847;SDS011;924;52.448;13.356;2023-04-06T10:36:22;3.70;;;2.70;;
1847;SDS011;924;52.448;13.356;2023-04-06T10:38:53;5.90;;;3.63;;
1847;SDS011;924;52.448;13.356;2023-04-06T10:41:18;3.70;;;3.37;;
1847;SDS011;924;52.448;13.356;2023-04-06T10:43:45;2.90;;;2.67;;
1847;SDS011;924;52.448;13.356;2023-04-06T10:46:10;3.43;;;3.00;;
1847;SDS011;924;52.448;13.356;2023-04-06T10:48:40;3.50;;;3.20;;
1847;SDS011;924;52.448;13.356;2023-04-06T10:51:12;3.43;;;3.13;;
1847;SDS011;924;52.448;13.356;2023-04-06T10:53:38;4.00;;;2.90;;
1847;SDS011;924;52.448;13.356;2023-04-06T10:56:03;5.00;;;2.90;;
1847;SDS011;924;52.448;13.356;2023-04-06T10:58:29;3.20;;;2.90;;
1847;SDS011;924;52.448;13.356;2023-04-06T11:00:55;3.77;;;2.80;;
1847;SDS011;924;52.448;13.356;2023-04-06T11:03:21;2.87;;;2.67;;
1847;SDS011;924;52.448;13.356;2023-04-06T11:05:50;3.47;;;2.73;;
1847;SDS011;924;52.448;13.356;2023-04-06T11:08:25;3.43;;;3.13;;
1847;SDS011;924;52.448;13.356;2023-04-06T11:10:50;3.67;;;3.40;;
1847;SDS011;924;52.448;13.356;2023-04-06T11:13:16;3.47;;;3.13;;
1847;SDS011;924;52.448;13.356;2023-04-06T11:15:41;2.90;;;2.70;;
1847;SDS011;924;52.448;13.356;2023-04-06T11:18:06;3.70;;;3.40;;
1847;SDS011;924;52.448;13.356;2023-04-06T11:20:31;4.40;;;3.50;;
1847;SDS011;924;52.448;13.356;2023-04-06T11:22:57;2.80;;;2.50;;
1847;SDS011;924;52.448;13.356;2023-04-06T11:25:24;2.93;;;2.63;;
1847;SDS011;924;52.448;13.356;2023-04-06T11:27:49;9.30;;;3.83;;
1847;SDS011;924;52.448;13.356;2023-04-06T11:30:15;4.13;;;3.63;;
1847;SDS011;924;52.448;13.356;2023-04-06T11:32:41;3.50;;;3.20;;
1847;SDS011;924;52.448;13.356;2023-04-06T11:35:10;3.37;;;3.07;;
1847;SDS011;924;52.448;13.356;2023-04-06T11:37:35;3.80;;;3.50;;
1847;SDS011;924;52.448;13.356;2023-04-06T11:40:00;8.13;;;3.60;;
1847;SDS011;924;52.448;13.356;2023-04-06T11:42:27;3.93;;;2.93;;
1847;SDS011;924;52.448;13.356;2023-04-06T11:44:59;4.10;;;3.60;;
1847;SDS011;924;52.448;13.356;2023-04-06T11:47:29;3.53;;;3.20;;
1847;SDS011;924;52.448;13.356;2023-04-06T11:49:55;3.97;;;3.67;;
1847;SDS011;924;52.448;13.356;2023-04-06T11:52:22;8.13;;;4.17;;
1847;SDS011;924;52.448;13.356;2023-04-06T11:54:48;5.47;;;3.40;;
1847;SDS011;924;52.448;13.356;2023-04-06T11:57:14;4.60;;;3.90;;
1847;SDS011;924;52.448;13.356;2023-04-06T11:59:39;4.70;;;3.87;;
1847;SDS011;924;52.448;13.356;2023-04-06T12:02:05;4.17;;;3.77;;
1847;SDS011;924;52.448;13.356;2023-04-06T12:04:31;4.03;;;3.67;;
1847;SDS011;924;52.448;13.356;2023-04-06T12:06:56;3.53;;;3.20;;
1847;SDS011;924;52.448;13.356;2023-04-06T12:09:22;4.63;;;4.23;;
1847;SDS011;924;52.448;13.356;2023-04-06T12:11:47;6.03;;;4.00;;
1847;SDS011;924;52.448;13.356;2023-04-06T12:14:13;5.03;;;3.93;;
1847;SDS011;924;52.448;13.356;2023-04-06T12:16:38;4.33;;;3.80;;
1847;SDS011;924;52.448;13.356;2023-04-06T12:19:03;4.37;;;3.70;;
1847;SDS011;924;52.448;13.356;2023-04-06T12:21:29;4.50;;;4.10;;
1847;SDS011;924;52.448;13.356;2023-04-06T12:23:56;3.97;;;3.47;;
1847;SDS011;924;52.448;13.356;2023-04-06T12:26:21;4.20;;;3.90;;
1847;SDS011;924;52.448;13.356;2023-04-06T12:28:47;5.87;;;3.80;;
1847;SDS011;924;52.448;13.356;2023-04-06T12:31:19;4.27;;;3.43;;
1847;SDS011;924;52.448;13.356;2023-04-06T12:33:48;4.30;;;3.60;;
1847;SDS011;924;52.448;13.356;2023-04-06T12:36:13;4.00;;;3.60;;
1847;SDS011;924;52.448;13.356;2023-04-06T12:38:40;3.83;;;3.53;;
1847;SDS011;924;52.448;13.356;2023-04-06T12:41:06;4.00;;;3.70;;
1847;SDS011;924;52.448;13.356;2023-04-06T12:43:31;3.53;;;3.23;;
1847;SDS011;924;52.448;13.356;2023-04-06T12:45:56;3.90;;;3.43;;
1847;SDS011;924;52.448;13.356;2023-04-06T12:48:22;4.00;;;3.60;;
1847;SDS011;924;52.448;13.356;2023-04-06T12:50:57;3.90;;;3.50;;
1847;SDS011;924;52.448;13.356;2023-04-06T12:53:23;5.00;;;4.33;;
1847;SDS011;924;52.448;13.356;2023-04-06T12:55:48;5.10;;;4.00;;
1847;SDS011;924;52.448;13.356;2023-04-06T12:58:14;4.00;;;3.63;;
1847;SDS011;924;52.448;13.356;2023-04-06T13:00:39;4.97;;;3.60;;
1847;SDS011;924;52.448;13.356;2023-04-06T13:03:05;3.90;;;3.60;;
1847;SDS011;924;52.448;13.356;2023-04-06T13:05:31;5.30;;;4.80;;
1847;SDS011;924;52.448;13.356;2023-04-06T13:07:56;4.87;;;4.33;;
1847;SDS011;924;52.448;13.356;2023-04-06T13:10:22;4.00;;;3.70;;
1847;SDS011;924;52.448;13.356;2023-04-06T13:12:47;4.53;;;3.87;;
1847;SDS011;924;52.448;13.356;2023-04-06T13:15:12;4.27;;;3.90;;
1847;SDS011;924;52.448;13.356;2023-04-06T13:17:37;5.13;;;4.00;;
1847;SDS011;924;52.448;13.356;2023-04-06T13:20:03;4.30;;;3.90;;
1847;SDS011;924;52.448;13.356;2023-04-06T13:22:28;5.77;;;3.87;;
1847;SDS011;924;52.448;13.356;2023-04-06T13:24:54;5.10;;;4.20;;
1847;SDS011;924;52.448;13.356;2023-04-06T13:27:19;4.40;;;3.80;;
1847;SDS011;924;52.448;13.356;2023-04-06T13:29:45;6.10;;;4.43;;
1847;SDS011;924;52.448;13.356;2023-04-06T13:32:10;6.63;;;4.87;;
1847;SDS011;924;52.448;13.356;2023-04-06T13:34:35;3.80;;;3.50;;
1847;SDS011;924;52.448;13.356;2023-04-06T13:37:00;4.10;;;3.70;;
1847;SDS011;924;52.448;13.356;2023-04-06T13:39:26;4.23;;;3.83;;
1847;SDS011;924;52.448;13.356;2023-04-06T13:41:52;4.17;;;3.77;;
1847;SDS011;924;52.448;13.356;2023-04-06T13:44:18;6.30;;;4.53;;
1847;SDS011;924;52.448;13.356;2023-04-06T13:46:43;5.10;;;4.70;;
1847;SDS011;924;52.448;13.356;2023-04-06T13:49:08;7.90;;;4.20;;
1847;SDS011;924;52.448;13.356;2023-04-06T13:51:33;5.63;;;5.13;;
1847;SDS011;924;52.448;13.356;2023-04-06T13:53:59;5.43;;;4.80;;
1847;SDS011;924;52.448;13.356;2023-04-06T13:56:24;8.17;;;4.90;;
1847;SDS011;924;52.448;13.356;2023-04-06T13:58:53;5.50;;;4.80;;
1847;SDS011;924;52.448;13.356;2023-04-06T14:01:18;4.87;;;4.47;;
1847;SDS011;924;52.448;13.356;2023-04-06T14:03:44;4.73;;;4.33;;
1847;SDS011;924;52.448;13.356;2023-04-06T14:06:12;4.80;;;4.17;;
1847;SDS011;924;52.448;13.356;2023-04-06T14:08:37;4.50;;;4.10;;
1847;SDS011;924;52.448;13.356;2023-04-06T14:11:03;4.20;;;3.80;;
1847;SDS011;924;52.448;13.356;2023-04-06T14:13:28;5.90;;;4.50;;
1847;SDS011;924;52.448;13.356;2023-04-06T14:15:53;5.20;;;4.70;;
1847;SDS011;924;52.448;13.356;2023-04-06T14:18:20;4.53;;;4.17;;
1847;SDS011;924;52.448;13.356;2023-04-06T14:20:52;6.93;;;4.37;;
1847;SDS011;924;52.448;13.356;2023-04-06T14:23:18;4.73;;;3.77;;
1847;SDS011;924;52.448;13.356;2023-04-06T14:25:43;4.40;;;3.93;;
1847;SDS011;924;52.448;13.356;2023-04-06T14:28:08;3.63;;;3.43;;
1847;SDS011;924;52.448;13.356;2023-04-06T14:30:33;4.70;;;3.97;;
1847;SDS011;924;52.448;13.356;2023-04-06T14:32:58;5.33;;;4.40;;
1847;SDS011;924;52.448;13.356;2023-04-06T14:35:24;4.43;;;4.10;;
1847;SDS011;924;52.448;13.356;2023-04-06T14:37:50;4.93;;;4.43;;
1847;SDS011;924;52.448;13.356;2023-04-06T14:40:15;3.90;;;3.50;;
1847;SDS011;924;52.448;13.356;2023-04-06T14:42:40;4.43;;;4.00;;
1847;SDS011;924;52.448;13.356;2023-04-06T14:45:06;4.40;;;4.00;;
1847;SDS011;924;52.448;13.356;2023-04-06T14:47:32;4.40;;;4.00;;
1847;SDS011;924;52.448;13.356;2023-04-06T14:49:57;7.00;;;5.00;;
1847;SDS011;924;52.448;13.356;2023-04-06T14:52:22;3.63;;;3.33;;
1847;SDS011;924;52.448;13.356;2023-04-06T14:54:47;6.50;;;3.73;;
1847;SDS011;924;52.448;13.356;2023-04-06T14:57:13;4.33;;;3.47;;
1847;SDS011;924;52.448;13.356;2023-04-06T14:59:38;5.20;;;4.43;;
1847;SDS011;924;52.448;13.356;2023-04-06T15:02:03;4.30;;;3.90;;